Time;durP1;ratioP1;P1;durP2;ratioP2;P2;SDS_P1;SDS_P2;PMS_P1;PMS_P2;Temp;Humidity;BMP_temperature;BMP_pressure;BME280_temperature;BME280_humidity;BME280_pressure;Samples;Min_cycle;Max_cycle;Signal;HPM_P1;HPM_P2
2022/03/08 00:00:13;;;;;;;10.60;7.80;;;6.40;44.90;;;;;;5014329;28;20455;-67
2022/03/08 00:02:40;;;;;;;8.70;7.87;;;6.40;45.00;;;;;;5014435;28;20438;-68
2022/03/08 00:05:07;;;;;;;8.43;7.70;;;6.30;45.10;;;;;;5014574;28;20436;-68
2022/03/08 00:07:34;;;;;;;8.73;7.70;;;6.30;45.30;;;;;;5014425;28;20502;-68
2022/03/08 00:10:01;;;;;;;9.37;8.33;;;6.30;45.30;;;;;;5014481;28;20455;-67
2022/03/08 00:12:27;;;;;;;10.70;7.17;;;6.30;45.30;;;;;;5014458;28;20447;-67
2022/03/08 00:14:54;;;;;;;7.87;6.90;;;6.30;45.40;;;;;;5014048;28;20965;-67
2022/03/08 00:17:22;;;;;;;7.97;7.20;;;6.30;45.40;;;;;;5014283;28;20471;-67
2022/03/08 00:19:49;;;;;;;8.50;7.60;;;6.20;45.40;;;;;;5014309;28;20455;-67
2022/03/08 00:22:16;;;;;;;8.20;7.40;;;6.20;45.40;;;;;;5014268;28;20451;-67
2022/03/08 00:24:43;;;;;;;8.23;7.43;;;6.20;45.50;;;;;;5014225;28;20510;-67
2022/03/08 00:27:11;;;;;;;8.50;7.30;;;6.20;45.60;;;;;;5014103;28;20487;-67
2022/03/08 00:29:38;;;;;;;8.90;8.00;;;6.20;45.50;;;;;;5014129;28;20459;-67
2022/03/08 00:32:06;;;;;;;8.40;7.60;;;6.20;45.50;;;;;;5013790;28;20953;-67
2022/03/08 00:34:34;;;;;;;8.53;7.73;;;6.10;45.60;;;;;;5014053;28;20454;-67
2022/03/08 00:37:01;;;;;;;7.80;7.00;;;6.10;45.80;;;;;;5013626;28;20471;-67
2022/03/08 00:39:28;;;;;;;8.73;7.93;;;6.10;46.00;;;;;;5013979;28;20454;-67
2022/03/08 00:41:54;;;;;;;7.87;6.97;;;6.00;46.20;;;;;;5014006;28;20454;-67
2022/03/08 00:44:21;;;;;;;9.20;7.87;;;6.00;46.40;;;;;;5013975;28;20440;-67
2022/03/08 00:46:48;;;;;;;9.93;6.83;;;6.00;46.40;;;;;;5013426;28;20862;-68
2022/03/08 00:49:14;;;;;;;8.30;6.40;;;6.00;46.40;;;;;;5013861;28;20451;-67
2022/03/08 00:51:42;;;;;;;8.43;7.00;;;6.00;46.50;;;;;;5013860;28;20459;-67
2022/03/08 00:54:09;;;;;;;8.63;7.73;;;6.00;46.40;;;;;;5013817;28;20447;-67
2022/03/08 00:56:36;;;;;;;8.40;7.50;;;6.00;46.30;;;;;;5013475;28;20973;-67
2022/03/08 00:59:03;;;;;;;7.70;6.83;;;6.00;46.10;;;;;;5013788;28;20459;-67
2022/03/08 01:01:29;;;;;;;8.00;7.20;;;6.00;46.10;;;;;;5013711;28;20471;-67
2022/03/08 01:03:56;;;;;;;8.43;7.63;;;6.00;46.20;;;;;;5013391;28;20454;-67
2022/03/08 01:06:23;;;;;;;9.20;7.73;;;5.90;46.30;;;;;;5013516;28;20467;-67
2022/03/08 01:08:51;;;;;;;10.70;7.93;;;5.90;46.40;;;;;;5013626;28;20509;-67
2022/03/08 01:11:18;;;;;;;8.57;7.67;;;5.90;46.50;;;;;;5013631;28;20452;-67
2022/03/08 01:13:44;;;;;;;10.70;8.30;;;5.80;46.60;;;;;;5015166;28;20458;-67
2022/03/08 01:16:11;;;;;;;8.00;7.20;;;5.80;46.90;;;;;;5017672;28;20471;-67
2022/03/08 01:18:38;;;;;;;10.80;8.47;;;5.80;46.90;;;;;;5017381;28;20447;-67
2022/03/08 01:21:05;;;;;;;8.50;7.43;;;5.80;47.00;;;;;;5017638;28;20443;-67
2022/03/08 01:23:31;;;;;;;8.30;7.50;;;5.80;46.80;;;;;;5017578;28;20447;-67
2022/03/08 01:25:59;;;;;;;9.03;8.07;;;5.80;46.80;;;;;;5017502;28;20471;-67
2022/03/08 01:28:26;;;;;;;8.80;8.00;;;5.80;46.90;;;;;;5017240;28;20970;-67
2022/03/08 01:30:53;;;;;;;9.00;7.57;;;5.80;47.00;;;;;;5017472;28;20450;-67
2022/03/08 01:33:20;;;;;;;8.67;7.77;;;5.80;46.90;;;;;;5017076;28;20812;-67
2022/03/08 01:35:47;;;;;;;8.77;7.97;;;5.80;46.90;;;;;;5017103;28;20490;-67
2022/03/08 01:38:14;;;;;;;8.87;7.87;;;5.70;46.90;;;;;;5017353;28;20450;-67
2022/03/08 01:40:41;;;;;;;8.10;7.30;;;5.70;47.00;;;;;;5017286;28;20447;-67
2022/03/08 01:43:09;;;;;;;8.83;7.13;;;5.80;47.20;;;;;;5016970;28;20965;-67
2022/03/08 01:45:35;;;;;;;7.93;7.10;;;5.70;47.20;;;;;;5017212;28;20470;-67
2022/03/08 01:48:03;;;;;;;7.87;6.83;;;5.70;47.20;;;;;;5017105;28;20479;-67
2022/03/08 01:50:29;;;;;;;7.90;6.80;;;5.70;47.40;;;;;;5016874;28;20454;-67
2022/03/08 01:52:56;;;;;;;8.10;7.37;;;5.70;47.40;;;;;;5017027;28;20451;-67
2022/03/08 01:55:25;;;;;;;8.33;7.53;;;5.70;47.50;;;;;;5016945;28;20478;-67
2022/03/08 01:57:53;;;;;;;8.00;5.83;;;5.70;47.60;;;;;;5016654;28;20490;-67
2022/03/08 02:00:23;;;;;;;10.10;7.53;;;5.70;47.50;;;;;;5016610;28;20849;-67
2022/03/08 02:02:50;;;;;;;8.00;7.20;;;5.60;47.40;;;;;;5016925;28;20444;-67
2022/03/08 02:05:17;;;;;;;7.97;7.17;;;5.60;47.40;;;;;;5016703;28;20497;-67
2022/03/08 02:07:44;;;;;;;8.13;7.33;;;5.60;47.50;;;;;;5016735;28;20501;-67
2022/03/08 02:10:11;;;;;;;7.70;7.00;;;5.60;47.60;;;;;;5017199;28;20466;-67
2022/03/08 02:12:38;;;;;;;8.87;7.97;;;5.60;47.70;;;;;;5016691;28;20448;-67
2022/03/08 02:15:13;;;;;;;7.87;7.07;;;5.50;47.60;;;;;;5016816;28;20451;-67
2022/03/08 02:17:41;;;;;;;8.80;7.67;;;5.50;47.90;;;;;;5016523;28;20478;-67
2022/03/08 02:20:10;;;;;;;7.67;6.97;;;5.50;47.90;;;;;;5016587;28;20447;-67
2022/03/08 02:22:40;;;;;;;7.67;6.97;;;5.50;47.90;;;;;;5016577;28;20463;-67
2022/03/08 02:25:07;;;;;;;8.90;7.47;;;5.50;48.00;;;;;;5016397;28;20451;-67
2022/03/08 02:27:34;;;;;;;9.00;8.10;;;5.50;48.10;;;;;;5016219;28;20487;-67
2022/03/08 02:30:01;;;;;;;7.60;6.37;;;5.40;48.00;;;;;;5016367;28;20458;-67
2022/03/08 02:32:28;;;;;;;7.90;7.10;;;5.40;47.90;;;;;;5016248;28;20444;-67
2022/03/08 02:34:55;;;;;;;9.07;7.43;;;5.40;48.00;;;;;;5016123;28;20454;-67
2022/03/08 02:37:21;;;;;;;8.30;7.50;;;5.40;48.30;;;;;;5016148;28;20493;-67
2022/03/08 02:39:51;;;;;;;12.17;7.83;;;5.30;48.30;;;;;;5016172;28;20527;-67
2022/03/08 02:42:18;;;;;;;10.27;7.07;;;5.30;48.40;;;;;;5016100;28;20505;-67
2022/03/08 02:44:45;;;;;;;9.67;7.20;;;5.30;48.60;;;;;;5016042;28;20451;-67
2022/03/08 02:47:11;;;;;;;8.70;6.50;;;5.30;48.70;;;;;;5015590;28;20491;-67
2022/03/08 02:49:38;;;;;;;8.20;6.77;;;5.30;48.80;;;;;;5016017;28;20455;-67
2022/03/08 02:52:05;;;;;;;8.00;7.20;;;5.30;48.80;;;;;;5015987;28;20451;-67
2022/03/08 02:54:32;;;;;;;8.90;6.90;;;5.20;48.70;;;;;;5015907;28;20802;-67
2022/03/08 02:57:00;;;;;;;9.37;7.70;;;5.20;48.80;;;;;;5015794;28;20494;-67
2022/03/08 02:59:27;;;;;;;8.03;7.20;;;5.20;48.80;;;;;;5015450;28;20957;-67
2022/03/08 03:01:54;;;;;;;8.57;7.07;;;5.20;48.80;;;;;;5015700;28;20447;-67
2022/03/08 03:04:20;;;;;;;8.77;7.70;;;5.20;48.80;;;;;;5015731;28;20478;-67
2022/03/08 03:06:47;;;;;;;11.70;7.40;;;5.20;48.80;;;;;;5015557;28;20475;-67
2022/03/08 03:09:14;;;;;;;7.70;6.90;;;5.10;48.70;;;;;;5015845;28;20489;-67
2022/03/08 03:11:41;;;;;;;8.40;7.00;;;5.10;48.70;;;;;;5015586;28;20444;-67
2022/03/08 03:14:10;;;;;;;7.73;6.93;;;5.10;48.70;;;;;;5015551;28;20861;-67
2022/03/08 03:16:37;;;;;;;7.87;7.17;;;5.10;48.80;;;;;;5015416;28;20562;-67
2022/03/08 03:19:04;;;;;;;8.20;6.87;;;5.10;49.00;;;;;;5015465;28;20455;-67
2022/03/08 03:21:31;;;;;;;9.37;7.10;;;5.00;49.10;;;;;;5015404;28;20450;-67
2022/03/08 03:23:58;;;;;;;8.13;7.33;;;5.00;49.20;;;;;;5015299;28;20463;-67
2022/03/08 03:26:24;;;;;;;8.67;6.80;;;5.00;49.30;;;;;;5015267;28;20519;-67
2022/03/08 03:28:51;;;;;;;8.30;6.93;;;5.00;49.40;;;;;;5014872;28;20482;-67
2022/03/08 03:31:19;;;;;;;7.27;6.43;;;5.00;49.40;;;;;;5015219;28;20458;-67
2022/03/08 03:33:46;;;;;;;6.80;6.13;;;4.90;49.50;;;;;;5015246;28;20443;-67
2022/03/08 03:36:13;;;;;;;8.33;6.83;;;4.90;49.70;;;;;;5014732;28;20494;-67
2022/03/08 03:38:40;;;;;;;8.63;7.13;;;4.90;49.70;;;;;;5015072;28;20455;-67
2022/03/08 03:41:06;;;;;;;7.20;6.50;;;4.90;49.60;;;;;;5015207;28;20462;-67
2022/03/08 03:43:34;;;;;;;9.73;7.53;;;4.90;49.80;;;;;;5015938;28;20454;-67
2022/03/08 03:46:01;;;;;;;8.97;7.43;;;4.90;49.90;;;;;;5014919;28;20554;-67
2022/03/08 03:48:29;;;;;;;9.20;8.17;;;4.90;50.00;;;;;;5014791;28;20844;-67
2022/03/08 03:50:56;;;;;;;8.70;7.77;;;4.90;50.10;;;;;;5014809;28;20462;-67
2022/03/08 03:53:22;;;;;;;11.33;8.03;;;4.90;50.20;;;;;;5014761;28;20451;-67
2022/03/08 03:55:49;;;;;;;10.30;8.73;;;4.90;50.20;;;;;;5014719;28;20464;-67
2022/03/08 03:58:16;;;;;;;10.27;8.30;;;4.90;50.40;;;;;;5014426;28;20805;-67
2022/03/08 04:00:43;;;;;;;13.00;7.40;;;4.80;50.40;;;;;;5014628;28;20455;-67
2022/03/08 04:03:09;;;;;;;7.90;7.07;;;4.80;50.60;;;;;;5014648;28;20451;-67
2022/03/08 04:05:38;;;;;;;9.03;7.53;;;4.80;50.60;;;;;;5014275;28;20981;-67
2022/03/08 04:08:05;;;;;;;11.37;7.87;;;4.80;50.70;;;;;;5014213;28;20487;-67
2022/03/08 04:10:32;;;;;;;7.97;7.20;;;4.80;50.90;;;;;;5014523;28;20451;-67
2022/03/08 04:12:58;;;;;;;10.03;8.00;;;4.80;51.00;;;;;;5014428;28;20453;-67
2022/03/08 04:15:26;;;;;;;7.07;6.37;;;4.80;51.00;;;;;;5014357;28;20451;-67
2022/03/08 04:17:52;;;;;;;8.47;7.40;;;4.80;50.90;;;;;;5014396;28;20449;-67
2022/03/08 04:20:19;;;;;;;8.10;6.80;;;4.80;50.90;;;;;;5014361;28;20554;-67
2022/03/08 04:22:47;;;;;;;7.63;6.93;;;4.80;50.80;;;;;;5014356;28;20451;-67
2022/03/08 04:25:14;;;;;;;8.40;7.20;;;4.80;50.90;;;;;;5014271;28;20459;-67
2022/03/08 04:27:41;;;;;;;7.83;6.20;;;4.70;50.80;;;;;;5014845;28;20509;-67
2022/03/08 04:30:09;;;;;;;8.03;6.83;;;4.70;50.90;;;;;;5014200;28;20493;-67
2022/03/08 04:32:36;;;;;;;7.90;6.30;;;4.70;51.00;;;;;;5014167;28;20502;-67
2022/03/08 04:35:05;;;;;;;8.10;7.30;;;4.70;51.10;;;;;;5013972;28;20458;-67
2022/03/08 04:37:31;;;;;;;7.33;6.37;;;4.70;51.10;;;;;;5013772;28;20890;-67
2022/03/08 04:40:00;;;;;;;7.37;6.57;;;4.60;51.20;;;;;;5014064;28;20444;-67
2022/03/08 04:42:27;;;;;;;9.40;7.17;;;4.60;51.10;;;;;;5014031;28;20513;-67
2022/03/08 04:44:54;;;;;;;7.03;6.33;;;4.60;51.20;;;;;;5014711;28;20436;-67
2022/03/08 04:47:20;;;;;;;10.40;6.93;;;4.60;51.40;;;;;;5013457;28;20464;-67
2022/03/08 04:49:47;;;;;;;6.80;6.10;;;4.60;51.30;;;;;;5013514;28;20451;-67
2022/03/08 04:52:14;;;;;;;10.83;6.97;;;4.60;51.30;;;;;;5013889;28;20450;-67
2022/03/08 04:54:40;;;;;;;6.90;5.80;;;4.60;51.40;;;;;;5013819;28;20455;-67
2022/03/08 04:57:09;;;;;;;6.60;6.03;;;4.60;51.50;;;;;;5013785;28;20833;-67
2022/03/08 04:59:35;;;;;;;8.70;6.97;;;4.60;52.10;;;;;;5013795;28;20440;-67
2022/03/08 05:02:02;;;;;;;8.97;7.33;;;4.60;51.50;;;;;;5013745;28;20460;-67
2022/03/08 05:04:29;;;;;;;9.07;6.77;;;4.50;51.60;;;;;;5013415;28;20812;-67
2022/03/08 05:06:56;;;;;;;7.60;6.80;;;4.50;51.70;;;;;;5013670;28;20476;-67
2022/03/08 05:09:23;;;;;;;9.17;6.77;;;4.60;51.80;;;;;;5013295;28;20843;-67
2022/03/08 05:11:49;;;;;;;8.57;6.97;;;4.50;51.80;;;;;;5013715;28;20439;-67
2022/03/08 05:14:17;;;;;;;9.00;7.77;;;4.50;51.90;;;;;;5013591;28;20451;-67
2022/03/08 05:16:44;;;;;;;13.97;7.07;;;4.50;52.00;;;;;;5013633;28;20463;-67
2022/03/08 05:19:11;;;;;;;8.70;7.80;;;4.50;52.10;;;;;;5013586;28;20451;-67
2022/03/08 05:21:38;;;;;;;7.10;6.40;;;4.50;52.30;;;;;;5013637;28;20446;-67
2022/03/08 05:24:05;;;;;;;8.33;7.33;;;4.50;52.30;;;;;;5013608;28;20447;-67
2022/03/08 05:26:32;;;;;;;7.33;6.63;;;4.50;52.30;;;;;;5013222;28;20997;-67
2022/03/08 05:28:59;;;;;;;11.27;6.90;;;4.50;52.30;;;;;;5013426;28;20573;-67
2022/03/08 05:31:27;;;;;;;9.23;8.03;;;4.50;52.20;;;;;;5013533;28;20802;-67
2022/03/08 05:33:54;;;;;;;8.27;7.13;;;4.50;52.20;;;;;;5013512;28;20452;-67
2022/03/08 05:36:20;;;;;;;9.37;7.57;;;4.50;52.10;;;;;;5013137;28;20483;-67
2022/03/08 05:38:47;;;;;;;7.43;6.73;;;4.50;52.20;;;;;;5013456;28;20848;-67
2022/03/08 05:41:14;;;;;;;9.00;6.80;;;4.40;52.20;;;;;;5013393;28;20443;-67
2022/03/08 05:43:40;;;;;;;7.57;6.87;;;4.40;52.30;;;;;;5013260;28;20440;-67
2022/03/08 05:46:07;;;;;;;8.17;6.87;;;4.40;52.40;;;;;;5013279;28;20475;-67
2022/03/08 05:48:35;;;;;;;8.40;6.93;;;4.40;52.30;;;;;;5012932;28;20510;-67
2022/03/08 05:51:02;;;;;;;7.33;6.63;;;4.40;52.50;;;;;;5013105;28;20447;-67
2022/03/08 05:53:29;;;;;;;8.30;6.57;;;4.30;52.60;;;;;;5013240;28;20459;-67
2022/03/08 05:55:56;;;;;;;9.60;7.23;;;4.30;52.60;;;;;;5013188;28;20479;-67
2022/03/08 05:58:23;;;;;;;7.80;7.03;;;4.30;52.80;;;;;;5013250;28;20439;-67
2022/03/08 06:00:49;;;;;;;8.50;6.70;;;4.30;52.90;;;;;;5016254;28;20524;-68
2022/03/08 06:03:16;;;;;;;9.67;7.30;;;4.30;53.10;;;;;;5016825;28;20451;-66
2022/03/08 06:05:44;;;;;;;14.73;7.43;;;4.20;53.00;;;;;;5016209;28;20838;-66
2022/03/08 06:08:11;;;;;;;7.17;6.20;;;4.30;53.00;;;;;;5016390;28;21005;-66
2022/03/08 06:10:38;;;;;;;8.07;7.20;;;4.20;53.00;;;;;;5016589;28;20447;-66
2022/03/08 06:13:04;;;;;;;11.20;7.20;;;4.20;53.10;;;;;;5016325;28;20816;-66
2022/03/08 06:15:31;;;;;;;8.30;6.37;;;4.30;53.10;;;;;;5016656;28;20454;-66
2022/03/08 06:17:58;;;;;;;7.60;6.57;;;4.20;53.00;;;;;;5016325;28;20914;-66
2022/03/08 06:20:25;;;;;;;8.13;7.10;;;4.20;53.20;;;;;;5016189;28;20946;-66
2022/03/08 06:22:54;;;;;;;8.40;6.57;;;4.30;53.30;;;;;;5016225;28;20823;-66
2022/03/08 06:25:21;;;;;;;7.63;6.90;;;4.30;53.30;;;;;;5016337;28;20550;-66
2022/03/08 06:27:48;;;;;;;8.00;6.97;;;4.20;53.50;;;;;;5016397;28;20447;-66
2022/03/08 06:30:15;;;;;;;8.50;7.60;;;4.30;53.40;;;;;;5015989;28;20494;-66
2022/03/08 06:32:42;;;;;;;7.30;6.57;;;4.30;53.00;;;;;;5015987;28;20462;-66
2022/03/08 06:35:09;;;;;;;7.80;6.90;;;4.40;52.90;;;;;;5016184;28;20451;-66
2022/03/08 06:37:36;;;;;;;10.87;7.33;;;4.40;52.90;;;;;;5016197;28;20478;-66
2022/03/08 06:40:05;;;;;;;9.30;6.97;;;4.40;52.80;;;;;;5015900;28;20451;-67
2022/03/08 06:42:31;;;;;;;8.87;7.40;;;4.40;52.60;;;;;;5016088;28;20443;-66
2022/03/08 06:45:00;;;;;;;8.00;7.13;;;4.40;52.50;;;;;;5016100;28;20443;-66
2022/03/08 06:47:26;;;;;;;6.70;6.00;;;4.40;52.50;;;;;;5015629;28;20485;-66
2022/03/08 06:49:53;;;;;;;7.50;6.30;;;4.50;52.50;;;;;;5015916;28;20486;-66
2022/03/08 06:52:20;;;;;;;10.00;7.27;;;4.50;52.50;;;;;;5015729;28;20898;-66
2022/03/08 06:54:47;;;;;;;8.60;7.00;;;4.50;52.40;;;;;;5016001;28;20447;-66
2022/03/08 06:57:15;;;;;;;10.50;7.43;;;4.50;52.30;;;;;;5015829;28;20469;-66
2022/03/08 06:59:42;;;;;;;9.03;7.00;;;4.50;52.30;;;;;;5015878;28;20447;-67
2022/03/08 07:02:10;;;;;;;8.63;6.63;;;4.50;52.40;;;;;;5015782;28;20440;-66
2022/03/08 07:04:36;;;;;;;9.37;6.93;;;4.50;52.50;;;;;;5015426;28;20548;-66
2022/03/08 07:07:04;;;;;;;8.80;7.00;;;4.60;52.40;;;;;;5015614;28;20482;-66
2022/03/08 07:09:30;;;;;;;7.90;7.10;;;4.60;52.30;;;;;;5015644;28;20537;-66
2022/03/08 07:11:57;;;;;;;10.80;7.00;;;4.60;52.40;;;;;;5014713;28;20447;-66
2022/03/08 07:14:42;;;;;;;7.77;6.97;;;4.60;52.50;;;;;;5015587;28;20431;-66
2022/03/08 07:17:09;;;;;;;10.80;7.30;;;4.60;52.40;;;;;;5015534;28;20518;-66
2022/03/08 07:19:36;;;;;;;8.73;6.73;;;4.60;52.80;;;;;;5015193;28;20439;-66
2022/03/08 07:22:03;;;;;;;8.70;6.70;;;4.60;52.50;;;;;;5015462;28;20451;-66
2022/03/08 07:24:29;;;;;;;8.10;6.90;;;4.70;52.60;;;;;;5015367;28;20432;-66
2022/03/08 07:26:56;;;;;;;7.37;6.67;;;4.70;52.40;;;;;;5014906;28;20479;-66
2022/03/08 07:29:23;;;;;;;8.00;7.13;;;4.80;52.70;;;;;;5015173;28;20486;-66
2022/03/08 07:31:51;;;;;;;8.13;7.17;;;4.80;52.50;;;;;;5015191;28;20454;-66
2022/03/08 07:34:18;;;;;;;9.63;7.40;;;4.90;52.20;;;;;;5015206;28;20447;-66
2022/03/08 07:36:44;;;;;;;7.47;6.67;;;5.00;52.10;;;;;;5014756;28;20578;-66
2022/03/08 07:39:11;;;;;;;11.60;7.10;;;5.10;51.90;;;;;;5014795;28;20968;-66
2022/03/08 07:41:38;;;;;;;8.40;7.60;;;5.20;51.10;;;;;;5015071;28;20454;-66
2022/03/08 07:44:05;;;;;;;8.43;6.60;;;5.20;51.30;;;;;;5014667;28;20970;-66
2022/03/08 07:46:32;;;;;;;8.03;7.20;;;5.20;51.60;;;;;;5014877;28;20810;-66
2022/03/08 07:49:00;;;;;;;6.97;6.37;;;5.30;51.20;;;;;;5014531;28;21021;-66
2022/03/08 07:51:27;;;;;;;9.10;6.70;;;5.40;51.00;;;;;;5014872;28;20497;-66
2022/03/08 07:53:54;;;;;;;9.07;6.63;;;5.40;51.00;;;;;;5014784;28;20466;-66
2022/03/08 07:56:20;;;;;;;8.60;6.70;;;5.50;50.90;;;;;;5014419;28;20474;-66
2022/03/08 07:58:47;;;;;;;7.80;7.00;;;5.60;50.50;;;;;;5014742;28;20454;-66
2022/03/08 08:01:14;;;;;;;7.80;7.00;;;5.60;50.70;;;;;;5014689;28;20447;-66
2022/03/08 08:03:41;;;;;;;10.30;6.73;;;5.70;50.40;;;;;;5014689;28;20474;-66
2022/03/08 08:06:09;;;;;;;10.20;6.30;;;5.80;50.10;;;;;;5014534;28;20463;-66
2022/03/08 08:08:35;;;;;;;7.50;6.40;;;5.80;49.80;;;;;;5014182;28;20438;-67
2022/03/08 08:11:02;;;;;;;8.13;6.13;;;5.90;49.40;;;;;;5014576;28;20443;-67
2022/03/08 08:13:29;;;;;;;11.07;6.23;;;6.00;48.20;;;;;;5014517;28;20613;-67
2022/03/08 08:15:56;;;;;;;8.77;6.20;;;6.10;48.20;;;;;;5014080;28;20982;-66
2022/03/08 08:18:23;;;;;;;8.43;6.90;;;6.10;48.30;;;;;;5014371;28;20447;-66
2022/03/08 08:20:50;;;;;;;7.33;6.53;;;6.10;48.00;;;;;;5014008;28;20946;-66
2022/03/08 08:23:18;;;;;;;10.30;6.97;;;6.20;48.30;;;;;;5014276;28;20435;-67
2022/03/08 08:25:45;;;;;;;7.43;6.73;;;6.30;48.40;;;;;;5014164;28;20482;-66
2022/03/08 08:28:12;;;;;;;7.20;6.50;;;6.30;48.30;;;;;;5014211;28;20451;-66
2022/03/08 08:30:38;;;;;;;7.20;6.50;;;6.40;48.40;;;;;;5014090;28;20514;-66
2022/03/08 08:33:05;;;;;;;7.80;6.67;;;6.40;48.00;;;;;;5014188;28;20442;-67
2022/03/08 08:35:32;;;;;;;7.80;6.97;;;6.50;47.40;;;;;;5013612;28;20958;-66
2022/03/08 08:37:59;;;;;;;9.03;6.57;;;6.50;47.50;;;;;;5014106;28;20436;-66
2022/03/08 08:40:27;;;;;;;7.80;7.00;;;6.50;47.50;;;;;;5014032;28;20439;-66
2022/03/08 08:42:54;;;;;;;6.90;6.00;;;6.60;47.60;;;;;;5014054;28;20470;-66
2022/03/08 08:45:21;;;;;;;8.10;6.77;;;6.70;47.40;;;;;;5013874;28;20462;-67
2022/03/08 08:47:48;;;;;;;9.33;8.17;;;6.70;47.20;;;;;;5013934;28;20451;-66
2022/03/08 08:50:14;;;;;;;9.00;7.00;;;6.80;46.80;;;;;;5013904;28;20460;-66
2022/03/08 08:52:41;;;;;;;7.10;6.50;;;6.70;45.40;;;;;;5013570;28;20964;-66
2022/03/08 08:55:09;;;;;;;8.80;7.50;;;6.70;45.10;;;;;;5013869;28;20447;-66
2022/03/08 08:57:37;;;;;;;7.77;6.97;;;6.80;45.80;;;;;;5013738;28;20468;-66
2022/03/08 09:00:05;;;;;;;7.73;6.93;;;6.80;45.00;;;;;;5013780;28;20447;-66
2022/03/08 09:02:31;;;;;;;7.27;6.20;;;6.70;44.70;;;;;;5013736;28;20451;-66
2022/03/08 09:04:58;;;;;;;6.27;5.67;;;6.70;45.30;;;;;;5013487;28;20451;-66
2022/03/08 09:07:25;;;;;;;8.57;6.90;;;6.70;45.20;;;;;;5013700;28;20474;-66
2022/03/08 09:09:52;;;;;;;6.83;5.97;;;6.80;44.90;;;;;;5013614;28;20495;-66
2022/03/08 09:12:18;;;;;;;7.10;6.40;;;6.80;45.40;;;;;;5013692;28;20447;-66
2022/03/08 09:14:47;;;;;;;7.00;6.30;;;6.90;45.20;;;;;;5013641;28;20451;-66
2022/03/08 09:17:13;;;;;;;8.60;6.73;;;6.90;44.20;;;;;;5013275;28;20981;-66
2022/03/08 09:19:40;;;;;;;6.20;5.60;;;6.90;44.60;;;;;;5013575;28;20443;-67
2022/03/08 09:22:07;;;;;;;8.03;6.47;;;7.00;45.10;;;;;;5013513;28;20447;-66
2022/03/08 09:24:35;;;;;;;6.83;5.83;;;7.00;45.20;;;;;;5013596;28;20451;-66
2022/03/08 09:27:02;;;;;;;6.97;6.27;;;7.10;46.20;;;;;;5013495;28;20658;-66
2022/03/08 09:29:29;;;;;;;7.10;6.27;;;7.20;44.90;;;;;;5013112;28;20837;-66
2022/03/08 09:31:57;;;;;;;7.20;5.30;;;7.30;45.10;;;;;;5013491;28;20443;-66
2022/03/08 09:34:24;;;;;;;6.10;5.50;;;7.40;45.30;;;;;;5014359;28;20451;-66
2022/03/08 09:36:51;;;;;;;7.40;6.00;;;7.50;43.90;;;;;;5017055;28;20505;-66
2022/03/08 09:39:18;;;;;;;6.57;5.97;;;7.60;44.70;;;;;;5017350;28;20454;-66
2022/03/08 09:41:44;;;;;;;10.37;6.30;;;7.60;44.30;;;;;;5017026;28;20458;-66
2022/03/08 09:44:12;;;;;;;6.00;5.40;;;7.80;43.20;;;;;;5017208;28;20462;-66
2022/03/08 09:46:39;;;;;;;6.87;6.13;;;7.80;42.50;;;;;;5017193;28;20520;-67
2022/03/08 09:49:08;;;;;;;6.07;5.50;;;7.90;42.30;;;;;;5017106;28;20435;-66
2022/03/08 09:51:37;;;;;;;6.67;6.07;;;8.00;42.20;;;;;;5017167;28;20427;-66
2022/03/08 09:54:05;;;;;;;5.73;5.13;;;8.20;42.30;;;;;;5017067;28;20501;-66
2022/03/08 09:56:32;;;;;;;6.00;5.47;;;8.30;42.30;;;;;;5016971;28;20466;-66
2022/03/08 09:59:00;;;;;;;5.90;5.30;;;8.50;41.60;;;;;;5016665;28;20942;-67
2022/03/08 10:01:27;;;;;;;6.23;5.60;;;8.60;41.70;;;;;;5016901;28;20542;-67
2022/03/08 10:03:54;;;;;;;5.20;4.70;;;8.80;41.50;;;;;;5016858;28;20454;-67
2022/03/08 10:06:22;;;;;;;7.70;4.60;;;8.90;39.50;;;;;;5016767;28;20467;-67
2022/03/08 10:08:49;;;;;;;6.00;5.40;;;8.90;39.90;;;;;;5016779;28;20451;-67
2022/03/08 10:11:17;;;;;;;7.67;5.00;;;9.00;39.80;;;;;;5016741;28;20470;-67
2022/03/08 10:13:47;;;;;;;6.93;5.00;;;9.30;39.90;;;;;;5016699;28;20522;-67
2022/03/08 10:16:16;;;;;;;5.23;4.53;;;9.50;39.40;;;;;;5016631;28;20467;-67
2022/03/08 10:18:45;;;;;;;10.73;4.40;;;9.90;38.50;;;;;;5016668;28;20431;-67
2022/03/08 10:21:33;;;;;;;5.83;4.57;;;10.20;36.60;;;;;;5016696;28;20437;-67
2022/03/08 10:24:02;;;;;;;7.63;4.97;;;10.70;35.80;;;;;;5016532;28;20446;-67
2022/03/08 10:26:32;;;;;;;6.33;4.30;;;11.00;34.40;;;;;;5016134;28;20810;-67
2022/03/08 10:28:59;;;;;;;7.57;4.60;;;11.20;33.80;;;;;;5016483;28;20447;-67
2022/03/08 10:31:27;;;;;;;4.70;4.30;;;11.40;32.50;;;;;;5016318;28;20487;-67
2022/03/08 10:34:03;;;;;;;7.13;4.53;;;11.70;33.00;;;;;;5016062;28;20926;-67
2022/03/08 10:36:31;;;;;;;5.50;5.00;;;12.10;32.00;;;;;;5016011;28;20478;-67
2022/03/08 10:39:12;;;;;;;4.40;4.00;;;12.20;30.30;;;;;;5016249;28;20534;-67
2022/03/08 10:41:50;;;;;;;5.20;4.50;;;12.50;31.20;;;;;;5016238;28;20427;-67
2022/03/08 10:44:19;;;;;;;5.83;5.33;;;12.70;30.00;;;;;;5016211;28;20431;-67
2022/03/08 10:47:00;;;;;;;5.40;4.90;;;12.80;30.60;;;;;;5014539;28;20529;-67
2022/03/08 10:49:27;;;;;;;5.07;4.67;;;13.10;29.80;;;;;;5016088;28;20471;-67
2022/03/08 10:52:00;;;;;;;5.37;4.50;;;13.20;28.80;;;;;;5015750;28;20839;-67
2022/03/08 10:54:30;;;;;;;6.40;5.37;;;13.20;29.10;;;;;;5016144;28;20428;-67
2022/03/08 10:56:58;;;;;;;6.60;4.60;;;13.50;28.40;;;;;;5015743;28;21051;-67
2022/03/08 10:59:25;;;;;;;6.60;5.57;;;13.60;27.80;;;;;;5015957;28;20458;-67
2022/03/08 11:01:52;;;;;;;5.73;5.03;;;13.60;28.40;;;;;;5015764;28;20478;-67
2022/03/08 11:04:20;;;;;;;7.37;6.40;;;13.80;28.40;;;;;;5015849;28;20462;-67
2022/03/08 11:06:50;;;;;;;6.67;4.90;;;13.90;27.90;;;;;;5015373;28;20979;-67
2022/03/08 11:09:18;;;;;;;4.77;4.37;;;14.20;29.30;;;;;;5015322;28;20456;-67
2022/03/08 11:11:46;;;;;;;5.47;4.97;;;14.80;27.90;;;;;;5015630;28;20471;-67
2022/03/08 11:14:14;;;;;;;6.40;5.77;;;15.10;27.20;;;;;;5015600;28;20447;-67
2022/03/08 11:16:41;;;;;;;5.97;5.30;;;15.40;26.80;;;;;;5015518;28;20507;-67
2022/03/08 11:19:11;;;;;;;6.73;5.67;;;15.50;26.50;;;;;;5015580;28;20447;-67
2022/03/08 11:21:38;;;;;;;6.50;5.80;;;15.50;26.20;;;;;;5015550;28;20443;-67
2022/03/08 11:24:05;;;;;;;5.37;4.87;;;15.70;26.80;;;;;;5015481;28;20448;-67
2022/03/08 11:26:32;;;;;;;6.40;5.10;;;16.00;26.30;;;;;;5015244;28;20467;-67
2022/03/08 11:29:03;;;;;;;5.10;4.60;;;16.20;25.60;;;;;;5015336;28;20798;-67
2022/03/08 11:31:35;;;;;;;5.57;5.00;;;16.30;25.90;;;;;;5014890;28;20467;-67
2022/03/08 11:34:09;;;;;;;5.90;5.40;;;16.50;25.60;;;;;;5015388;28;20436;-67
2022/03/08 11:36:39;;;;;;;6.63;4.93;;;16.50;25.10;;;;;;5014801;28;20912;-67
2022/03/08 11:39:20;;;;;;;8.40;5.93;;;16.60;25.40;;;;;;5015821;28;20506;-67
2022/03/08 11:41:48;;;;;;;6.27;5.70;;;16.90;24.90;;;;;;5015148;28;20427;-67
2022/03/08 11:44:23;;;;;;;6.60;4.80;;;17.10;24.90;;;;;;5015042;28;20452;-67
2022/03/08 11:47:07;;;;;;;5.70;5.20;;;17.50;24.80;;;;;;5014915;28;20471;-68
2022/03/08 11:49:42;;;;;;;5.50;5.00;;;18.00;23.90;;;;;;5014937;28;20482;-68
2022/03/08 11:52:16;;;;;;;5.67;5.17;;;18.20;23.70;;;;;;5014604;28;20442;-67
2022/03/08 11:54:53;;;;;;;6.77;6.07;;;18.60;24.00;;;;;;5014656;28;20435;-67
2022/03/08 11:57:54;;;;;;;6.10;5.60;;;18.70;22.70;;;;;;5014448;28;20470;-67
2022/03/08 12:00:28;;;;;;;5.47;4.97;;;18.60;22.70;;;;;;5014777;28;20443;-67
2022/03/08 12:02:57;;;;;;;8.17;6.30;;;18.70;23.40;;;;;;5014847;28;20773;-67
2022/03/08 12:05:43;;;;;;;6.50;6.00;;;18.80;22.70;;;;;;5014594;28;20423;-67
2022/03/08 12:08:41;;;;;;;6.40;5.40;;;18.50;22.50;;;;;;5014320;28;20435;-67
2022/03/08 12:11:30;;;;;;;7.20;4.93;;;18.30;23.50;;;;;;5014551;28;20470;-67
2022/03/08 12:14:05;;;;;;;6.40;5.40;;;18.40;23.90;;;;;;5012632;28;20455;-67
2022/03/08 12:16:34;;;;;;;6.07;5.50;;;18.90;23.80;;;;;;5014492;28;20463;-67
2022/03/08 12:19:03;;;;;;;6.40;5.80;;;19.70;23.00;;;;;;5014445;28;20447;-67
2022/03/08 12:21:36;;;;;;;7.90;5.53;;;20.20;22.20;;;;;;5014253;28;20443;-67
2022/03/08 12:24:06;;;;;;;5.93;5.43;;;20.60;21.70;;;;;;5014371;28;20435;-68
2022/03/08 12:26:36;;;;;;;6.20;5.60;;;21.40;22.30;;;;;;5014035;28;20998;-68
2022/03/08 12:29:08;;;;;;;5.70;5.20;;;22.10;20.90;;;;;;5013950;28;21045;-67
2022/03/08 12:32:21;;;;;;;6.17;5.67;;;22.60;20.80;;;;;;5014194;28;20483;-67
2022/03/08 12:34:51;;;;;;;8.10;5.37;;;22.70;19.80;;;;;;5014376;28;20451;-68
2022/03/08 12:37:21;;;;;;;5.87;5.27;;;23.30;20.60;;;;;;5013834;28;20471;-67
2022/03/08 12:39:52;;;;;;;7.07;5.90;;;23.60;19.50;;;;;;5014193;28;20427;-67
2022/03/08 12:42:21;;;;;;;6.43;5.80;;;24.00;18.80;;;;;;5014150;28;20431;-67
2022/03/08 12:44:55;;;;;;;6.20;5.70;;;24.10;18.60;;;;;;5013626;28;20906;-67
2022/03/08 12:47:25;;;;;;;6.63;6.10;;;23.60;18.60;;;;;;5014014;28;20477;-67
2022/03/08 12:49:52;;;;;;;6.20;5.60;;;23.00;19.40;;;;;;5013600;28;20805;-67
2022/03/08 12:52:19;;;;;;;6.50;5.50;;;23.20;20.40;;;;;;5013516;28;20966;-67
2022/03/08 12:54:57;;;;;;;5.70;5.20;;;23.50;19.00;;;;;;5013800;28;20460;-67
2022/03/08 12:57:25;;;;;;;6.00;5.50;;;23.40;19.60;;;;;;5014494;28;20566;-67